Sant Julià de Vilatorta





Hora UTC 11:00
Temperatura 16.1 ºC
Humitat 62.5 %
Pressió 1011.1 hPa
Pluja 1.0 mm
Velocitat vent 11.8 km/h
Direcció vent SSW
Radiació solar 983.0 W/m²

Dades diàries 2021-05-14



Hora UTC (hivern +1h; estiu +2h)
Temperatura (ºC) Humitat (%) Pressió (hPa) Velocitat vent (km/h) Precipitació (mm) Radiació solar (W/m²)
Hora UTC Aire Humitat Pressió Vel. Dir. Vel. Max Dir. Intent. màx 5 min. Rad. Sol.
00:05 11.6 75.9 1009.4 1.6 WSW 1.6 SSW 0.0 0.2
00:10 11.6 77.6 1009.3 1.6 SSW 2.9 S 0.0 0.2
00:15 11.6 78.0 1009.4 1.8 SSE 4.0 SSE 0.0 0.2
00:20 11.6 76.8 1009.3 2.3 S 4.0 SSE 0.0 0.2
00:25 11.6 75.4 1009.4 1.7 SSW 2.8 SW 0.0 0.1
00:30 11.6 75.6 1009.4 2.6 SSE 4.5 SE 0.0 0.0
00:35 11.7 75.3 1009.3 2.6 S 3.9 SSE 0.0 0.0
00:40 11.7 76.0 1009.2 3.4 SSE 5.8 SSE 0.0 0.0
00:45 11.6 76.7 1009.3 3.0 SSE 4.9 SSE 0.0 0.0
00:50 11.6 76.6 1009.3 2.1 SSE 6.3 SE 0.0 0.0
00:55 11.7 77.7 1009.2 2.0 SSW 6.8 S 0.0 0.0
01:00 11.8 78.2 1009.2 2.2 SSW 5.0 SSW 0.0 0.0
01:05 11.8 79.4 1009.1 2.4 SSW 4.8 SSW 0.0 0.0
01:10 11.7 79.6 1009.1 2.1 S 4.8 SW 0.0 0.0
01:15 11.8 79.5 1009.1 2.8 S 6.4 S 0.0 0.0
01:20 11.9 79.1 1009.1 2.8 SSW 7.0 SSW 0.0 0.0
01:25 11.9 79.4 1009.1 2.3 SW 8.5 SSW 0.0 0.0
01:30 11.8 79.7 1009.1 3.2 S 5.7 SSW 0.0 0.0
01:35 11.8 80.2 1009.1 2.3 S 4.2 WSW 0.0 0.0
01:40 11.8 80.2 1009.0 2.1 SSW 4.2 S 0.0 0.0
01:45 11.8 80.2 1008.9 2.2 S 5.5 S 0.0 0.0
01:50 11.8 79.9 1008.9 2.7 S 4.2 SSE 0.0 0.0
01:55 11.8 80.3 1008.8 2.3 SSE 3.9 SSE 0.0 0.0
02:00 11.8 79.8 1008.8 2.8 SSE 4.9 SE 0.0 0.0
02:05 11.8 79.6 1008.9 3.1 SSE 4.8 SE 0.0 0.0
02:10 11.8 80.2 1009.0 2.9 S 4.0 S 0.0 0.0
02:15 11.8 80.3 1008.9 2.7 S 4.8 SSE 0.0 0.0
02:20 11.8 79.9 1008.9 1.9 S 3.1 SSE 0.0 0.0
02:25 11.7 80.0 1008.8 1.4 S 3.0 SSE 0.0 0.0
02:30 11.7 80.1 1008.7 2.6 SSE 4.4 SSE 0.0 0.0
02:35 11.8 80.2 1008.7 1.4 SSW 3.0 S 0.0 0.0
02:40 11.7 80.3 1008.7 1.1 NNE 2.4 SSE 0.0 0.0
02:45 11.6 81.3 1008.7 1.0 NNW 1.7 NW 0.0 0.0
02:50 11.6 81.3 1008.7 1.5 ENE 2.3 NE 0.0 0.0
02:55 11.5 80.7 1008.7 1.7 ESE 3.7 SE 0.0 0.0
03:00 11.5 80.6 1008.6 1.7 ESE 3.7 SE 0.0 0.0
03:05 11.5 80.9 1008.6 1.8 SE 3.0 SSE 0.0 0.0
03:10 11.5 80.6 1008.6 2.2 ESE 3.6 E 0.0 0.0
03:15 11.5 80.3 1008.6 1.2 SE 2.7 SE 0.0 0.0
03:20 11.5 80.8 1008.7 0.9 WSW 2.7 WSW 0.0 0.0
03:25 11.5 81.1 1008.6 2.4 ESE 4.6 SE 0.0 0.0
03:30 11.6 81.3 1008.7 2.8 S 5.7 SSE 0.0 0.0
03:35 11.6 81.2 1008.8 2.9 WSW 6.1 NW 0.0 0.0
03:40 11.5 82.9 1008.8 3.6 NW 5.9 NW 0.0 0.0
03:45 11.4 84.1 1008.8 3.7 NNW 6.3 NW 0.0 0.0
03:50 11.3 84.8 1008.9 1.5 W 2.5 W 0.0 0.0
03:55 11.2 85.2 1008.8 2.2 NW 3.4 NNW 0.0 0.0
04:00 11.1 85.7 1008.8 2.0 NE 3.1 ENE 0.0 0.0
04:05 11.1 86.1 1008.7 1.6 NE 3.1 ENE 0.0 0.0
04:10 11.0 86.3 1008.7 2.8 W 4.9 W 0.0 0.0
04:15 10.9 86.0 1008.8 2.0 WSW 3.8 WNW 0.0 0.0
04:20 10.9 86.1 1008.8 2.1 SSW 3.3 S 0.0 0.0
04:25 10.9 86.5 1008.8 2.6 SSW 4.9 SSW 0.0 0.0
04:30 10.9 86.7 1008.9 2.9 S 5.0 SE 0.0 0.1
04:35 10.9 87.3 1008.8 2.3 SE 4.9 SSE 0.0 0.6
04:40 10.9 87.4 1008.8 1.0 S 2.5 SSW 0.0 0.8
04:45 10.9 87.6 1008.8 0.7 NE 1.5 E 0.0 1.1
04:50 10.9 87.8 1008.8 0.8 SSE 2.6 SSE 0.0 1.6
04:55 11.0 88.3 1008.8 2.4 SSE 3.7 SSE 0.0 2.7
05:00 11.1 87.7 1008.8 2.0 SSW 3.2 SSW 0.0 2.9
05:05 11.2 87.4 1008.9 1.4 SSE 2.7 SE 0.0 3.7
05:10 11.1 87.1 1008.9 1.5 ESE 2.4 ENE 0.0 4.8
05:15 11.1 87.2 1009.0 1.0 SSW 2.4 SSW 0.0 7.5
05:20 11.1 87.4 1009.1 1.5 SW 2.5 SSW 0.0 12.0
05:25 11.2 87.1 1009.1 2.6 S 4.9 S 0.0 15.5
05:30 11.3 86.1 1009.1 3.4 S 6.7 SSE 0.0 17.4
05:35 11.4 83.9 1009.1 3.0 S 6.4 SSE 0.0 23.4
05:40 11.5 83.1 1009.1 1.6 S 3.3 S 0.0 37.1
05:45 11.6 83.0 1009.2 2.2 NW 4.4 WNW 0.0 40.6
05:50 11.6 84.0 1009.3 4.5 NW 7.7 NW 0.0 29.5
05:55 11.4 84.8 1009.3 7.2 NW 11.6 NW 0.0 21.1
06:00 11.1 85.6 1009.3 3.8 NW 6.2 NW 0.0 33.2
06:05 11.0 86.3 1009.4 2.1 NW 3.5 NNW 0.0 37.6
06:10 11.1 87.5 1009.4 2.7 NW 4.8 NNW 0.0 31.2
06:15 11.0 88.0 1009.5 4.8 NW 7.8 NW 0.0 24.6
06:20 10.6 89.1 1009.6 8.5 NNW 12.3 NNW 0.6 36.9
06:25 10.2 91.3 1009.6 5.6 NNW 8.9 NNW 0.2 66.2
06:30 10.1 92.8 1009.7 3.5 NW 6.8 NNW 0.1 115.5
06:35 10.3 94.0 1009.7 1.4 S 3.1 SSE 0.0 157.2
06:40 10.5 94.6 1009.8 2.1 NNE 5.6 NW 0.1 118.7
06:45 10.4 94.0 1009.9 5.2 NW 7.6 NW 0.0 101.8
06:50 10.3 93.2 1010.0 4.2 NNW 7.1 NNW 0.0 91.1
06:55 10.4 93.5 1010.1 1.7 NW 4.3 NNW 0.0 95.9
07:00 10.5 93.8 1010.1 2.1 NE 3.8 NE 0.0 118.9
07:05 10.6 93.8 1010.1 1.1 SE 2.6 E 0.0 113.1
07:10 10.7 94.0 1010.2 1.8 SSW 3.3 SSW 0.0 153.4
07:15 10.8 93.9 1010.3 1.2 SSW 2.8 SW 0.0 153.4
07:20 10.9 93.5 1010.3 2.7 W 10.8 SSW 0.0 72.6
07:25 10.8 92.5 1010.3 5.2 SSW 12.0 SW 0.0 67.1
07:30 10.8 91.7 1010.4 6.9 SSW 14.8 SW 0.0 81.3
07:35 10.6 90.8 1010.4 5.8 SSW 12.0 SW 0.0 145.3
07:40 10.7 91.8 1010.3 7.6 S 15.0 S 0.0 135.8
07:45 10.7 91.9 1010.3 8.4 S 15.6 SE 0.0 121.5
07:50 10.7 92.0 1010.3 8.7 S 17.4 SSW 0.0 163.6
07:55 10.9 91.9 1010.5 7.2 S 12.7 S 0.0 153.1
08:00 10.9 91.3 1010.6 8.2 S 16.9 SSW 0.0 172.1
08:05 11.2 91.1 1010.7 5.4 S 10.6 SSW 0.0 312.1
08:10 11.6 90.9 1010.8 6.1 SSW 13.2 SSW 0.0 381.2
08:15 12.0 89.8 1010.9 2.6 SSW 7.0 SW 0.0 269.8
08:20 12.2 89.7 1010.9 3.8 SW 9.8 SSE 0.0 235.0
08:25 12.4 87.9 1010.8 6.9 S 15.1 S 0.0 576.2
08:30 12.8 85.6 1010.7 6.9 S 15.0 SSW 0.0 615.5
08:35 13.0 83.0 1010.7 8.0 S 14.9 S 0.0 689.2
08:40 13.3 81.6 1010.7 6.7 S 13.4 SSW 0.0 564.7
08:45 13.7 81.0 1010.8 4.6 S 11.8 S 0.0 657.2
08:50 14.0 79.1 1010.8 5.3 WNW 14.1 NW 0.0 464.4
08:55 13.9 80.4 1010.8 4.2 SSW 9.4 SSW 0.0 211.4
09:00 13.6 78.9 1010.8 6.0 S 13.0 SSW 0.0 255.0
09:05 13.6 80.5 1010.8 4.8 S 12.5 SE 0.0 467.4
09:10 13.9 75.9 1010.8 5.9 WSW 13.1 W 0.0 255.9
09:15 13.7 75.7 1010.8 5.9 S 19.2 SSW 0.0 264.7
09:20 13.8 73.7 1010.9 6.7 SW 15.4 S 0.0 218.8
09:25 13.9 73.0 1010.9 3.9 WSW 8.8 SW 0.0 817.0
09:30 14.3 73.0 1010.9 8.4 SSW 15.3 SSW 0.0 842.0
09:35 14.5 73.8 1010.9 6.5 SSW 13.6 S 0.0 898.0
09:40 15.1 70.2 1010.9 6.0 SW 13.5 SE 0.0 898.0
09:45 15.1 69.9 1011.0 8.4 SSW 18.8 SSW 0.0 354.0
09:50 14.7 70.9 1011.0 10.9 SSW 21.7 SSW 0.0 867.0
09:55 14.9 70.3 1011.1 9.1 SSW 17.5 SSE 0.0 884.0
10:00 14.9 69.5 1011.1 8.3 SSW 19.9 SW 0.0 753.2
10:05 15.3 68.5 1011.1 9.5 SSW 22.3 SW 0.0 877.0
10:10 15.4 68.1 1011.0 8.4 S 17.9 SSW 0.0 921.0
10:15 15.6 65.3 1011.0 9.4 S 17.5 S 0.0 681.0
10:20 15.6 65.4 1010.9 8.9 S 20.0 SSE 0.0 961.0
10:25 15.7 65.4 1010.9 9.7 SSW 21.0 SSW 0.0 813.0
10:30 16.0 65.5 1011.0 8.0 SSW 18.5 SSW 0.0 986.0
10:35 16.0 61.0 1011.1 10.3 SSW 18.5 SSW 0.0 955.0
10:40 16.0 62.0 1011.1 8.6 SSW 18.9 SSW 0.0 941.0
10:45 16.2 64.0 1011.1 8.3 SSW 21.5 SW 0.0 966.0
10:50 16.1 62.4 1011.1 10.8 SSW 21.8 SSE 0.0 970.0
10:55 16.3 62.0 1011.1 12.3 S 30.8 S 0.0 1002.0
11:00 16.1 62.5 1011.1 11.8 SSW 22.4 SSW 0.0 983.0
Màxima 16.4 94.6 1011.1 12.3 S 30.8 S 0.6 1002.0
Mínima 10.1 61.0 1008.6
Total 1.0